Time;durP1;ratioP1;P1;durP2;ratioP2;P2;SDS_P1;SDS_P2;PMS_P1;PMS_P2;Temp;Humidity;BMP_temperature;BMP_pressure;BME280_temperature;BME280_humidity;BME280_pressure;Samples;Min_cycle;Max_cycle;Signal;HPM_P1;HPM_P2
2023/03/08 00:00:00;;;;;;;7.47;5.90;;;;;;;10.61;74.77;100726.44;5050875;28;19921;-85
2023/03/08 00:02:26;;;;;;;8.75;6.68;;;;;;;10.76;74.53;100740.31;5069079;28;20035;-86
2023/03/08 00:04:55;;;;;;;9.20;6.28;;;;;;;10.66;74.50;100743.25;5048245;28;20036;-86
2023/03/08 00:07:21;;;;;;;8.55;6.22;;;;;;;10.71;74.71;100741.78;5051371;28;20445;-85
2023/03/08 00:09:47;;;;;;;;;;;;;;;10.72;74.76;100743.56;5051590;28;20029;-85
2023/03/08 00:12:13;;;;;;;9.98;5.80;;;;;;;10.18;74.52;100657.16;5037018;28;19924;-86
2023/03/08 00:14:38;;;;;;;7.55;5.78;;;;;;;10.43;74.67;100691.53;5070844;28;20047;-85
2023/03/08 00:17:05;;;;;;;6.50;5.55;;;;;;;10.67;74.52;100733.69;5067620;28;20434;-84
2023/03/08 00:19:30;;;;;;;9.85;6.60;;;;;;;10.37;74.00;100685.16;5074230;28;20040;-84
2023/03/08 00:21:56;;;;;;;8.80;6.07;;;;;;;10.30;74.48;100669.09;5053265;28;20039;-85
2023/03/08 00:24:22;;;;;;;9.18;6.15;;;;;;;10.73;74.23;100736.63;5050922;28;20029;-85
2023/03/08 00:26:47;;;;;;;8.88;6.25;;;;;;;10.66;74.40;100724.97;5058628;28;20055;-85
2023/03/08 00:29:13;;;;;;;7.15;5.50;;;;;;;10.58;74.30;100706.28;5071231;28;20546;-86
2023/03/08 00:31:38;;;;;;;8.60;6.35;;;;;;;10.44;73.89;100681.16;5072754;28;20032;-87
2023/03/08 00:34:04;;;;;;;7.55;5.88;;;;;;;10.22;74.28;100657.31;5072567;28;20525;-84
2023/03/08 00:36:30;;;;;;;9.30;6.10;;;;;;;10.52;74.09;100713.81;5072643;28;20020;-85
2023/03/08 00:38:56;;;;;;;7.63;5.72;;;;;;;10.76;73.82;100747.25;5050990;28;20033;-86
2023/03/08 00:41:22;;;;;;;9.40;5.95;;;;;;;10.45;74.04;100689.88;5037795;28;20036;-86
2023/03/08 00:43:48;;;;;;;7.40;5.75;;;;;;;10.42;74.17;100694.97;5053929;28;20028;-86
2023/03/08 00:46:14;;;;;;;9.75;6.35;;;;;;;10.70;74.25;100742.59;5071808;28;20556;-86
2023/03/08 00:48:40;;;;;;;;;;;;;;;10.72;74.53;100746.19;5054565;28;20033;-86
2023/03/08 00:51:06;;;;;;;7.93;5.75;;;;;;;10.45;74.46;100705.56;5055043;28;20292;-86
2023/03/08 00:53:31;;;;;;;7.57;5.80;;;;;;;10.62;74.56;100732.56;5055406;28;20114;-86
2023/03/08 00:55:59;;;;;;;7.88;5.88;;;;;;;10.52;74.69;100716.41;5072594;28;20034;-87
2023/03/08 00:58:27;;;;;;;8.10;5.97;;;;;;;10.66;74.59;100731.91;5071161;28;20674;-84
2023/03/08 01:00:53;;;;;;;8.25;6.10;;;;;;;10.65;74.49;100732.75;5054795;28;20052;-86
2023/03/08 01:03:20;;;;;;;7.75;5.78;;;;;;;10.69;74.58;100727.75;5071045;28;20159;-86
2023/03/08 01:05:48;;;;;;;7.93;6.00;;;;;;;10.66;74.33;100719.75;5038103;28;20476;-86
2023/03/08 01:08:14;;;;;;;8.05;5.90;;;;;;;10.42;74.26;100687.13;5053873;28;20045;-86
2023/03/08 01:10:40;;;;;;;8.60;5.88;;;;;;;10.45;74.46;100692.50;5054310;28;20025;-87
2023/03/08 01:13:06;;;;;;;8.07;5.65;;;;;;;10.38;74.48;100686.94;5072441;28;20040;-87
2023/03/08 01:15:36;;;;;;;8.15;5.70;;;;;;;10.69;74.50;100729.44;5043182;28;20029;-87
2023/03/08 01:18:05;;;;;;;8.45;5.85;;;;;;;10.70;74.28;100729.53;5045466;28;20033;-85
2023/03/08 01:20:32;;;;;;;7.57;5.60;;;;;;;10.30;74.18;100658.66;5071770;28;20036;-85
2023/03/08 01:22:57;;;;;;;6.82;5.38;;;;;;;10.74;74.02;100730.59;5070604;28;20074;-86
2023/03/08 01:25:23;;;;;;;7.65;5.78;;;;;;;10.71;74.23;100726.13;5053296;28;20048;-86
2023/03/08 01:27:49;;;;;;;9.02;5.97;;;;;;;10.61;74.49;100717.72;5072009;28;20497;-85
2023/03/08 01:30:15;;;;;;;8.38;5.93;;;;;;;10.45;74.12;100677.72;5053878;28;20031;-86
2023/03/08 01:32:40;;;;;;;7.63;5.45;;;;;;;10.36;74.48;100666.81;5072957;28;20040;-86
2023/03/08 01:35:06;;;;;;;7.95;6.05;;;;;;;10.54;74.01;100699.13;5052828;28;20056;-86
2023/03/08 01:37:33;;;;;;;7.90;5.60;;;;;;;10.59;74.51;100713.31;5050068;28;20037;-86
2023/03/08 01:39:58;;;;;;;;;;;;;;;10.70;74.53;100710.38;5037933;28;20034;-86
2023/03/08 01:42:24;;;;;;;7.50;5.63;;;;;;;10.63;74.10;100690.88;5053480;28;20006;-85
2023/03/08 01:44:55;;;;;;;7.07;5.50;;;;;;;10.73;74.37;100710.50;5052778;28;20075;-86
2023/03/08 01:47:26;;;;;;;7.68;5.60;;;;;;;10.68;74.34;100705.03;5050415;28;20119;-85
2023/03/08 01:49:57;;;;;;;8.18;6.07;;;;;;;10.23;74.48;100628.69;5053416;28;20688;-86
2023/03/08 01:52:29;;;;;;;6.97;5.68;;;;;;;10.27;74.38;100641.09;5071996;28;20035;-86
2023/03/08 01:54:57;;;;;;;8.55;6.05;;;;;;;10.55;74.04;100694.78;5070137;28;20056;-87
2023/03/08 01:57:26;;;;;;;6.78;5.15;;;;;;;10.69;74.00;100716.38;5054474;28;20055;-87
2023/03/08 02:00:17;;;;;;;6.80;5.40;;;;;;;10.43;73.91;100668.91;5069781;28;20024;-87
2023/03/08 02:03:06;;;;;;;6.80;5.28;;;;;;;10.67;74.21;100712.78;5036586;28;20044;-87
2023/03/08 02:05:34;;;;;;;7.43;5.68;;;;;;;10.65;74.26;100706.63;5068255;28;20041;-87
2023/03/08 02:08:00;;;;;;;7.18;5.38;;;;;;;10.19;74.19;100635.44;5053989;28;20017;-88
2023/03/08 02:10:26;;;;;;;8.20;5.20;;;;;;;10.47;74.16;100678.69;5053342;28;20039;-87
2023/03/08 02:12:51;;;;;;;6.00;4.90;;;;;;;10.45;74.31;100688.16;5049478;28;20567;-87
2023/03/08 02:15:18;;;;;;;7.28;5.47;;;;;;;10.25;74.34;100641.84;5050898;28;20043;-87
2023/03/08 02:17:45;;;;;;;7.45;5.55;;;;;;;10.42;74.37;100688.03;5069751;28;20424;-88
2023/03/08 02:20:22;;;;;;;7.70;6.15;;;;;;;10.13;74.38;100629.91;5069500;28;20071;-86
2023/03/08 02:22:51;;;;;;;;;;;;;;;10.70;74.41;100720.81;5052195;28;20478;-87
2023/03/08 02:25:26;;;;;;;7.65;5.45;;;;;;;10.66;74.31;100729.28;5068997;28;20016;-87
2023/03/08 02:27:52;;;;;;;7.35;5.18;;;;;;;10.41;74.37;100695.75;5063023;28;20029;-87
2023/03/08 02:30:25;;;;;;;;;;;;;;;10.55;74.69;100736.56;5052999;28;20489;-87
2023/03/08 02:32:51;;;;;;;8.18;6.20;;;;;;;10.48;74.28;100719.69;5052434;28;19912;-86
2023/03/08 02:35:17;;;;;;;8.23;5.65;;;;;;;10.34;74.03;100684.09;5045407;28;20037;-87
2023/03/08 02:37:42;;;;;;;6.97;5.30;;;;;;;10.29;74.14;100682.94;5065926;28;20513;-87
2023/03/08 02:40:10;;;;;;;7.20;5.18;;;;;;;10.27;74.39;100674.13;5052727;28;20036;-88
2023/03/08 02:42:36;;;;;;;7.35;5.28;;;;;;;10.33;74.51;100692.75;5053520;28;20040;-87
2023/03/08 02:45:02;;;;;;;6.70;4.57;;;;;;;10.59;74.30;100738.53;5052225;28;20032;-88
2023/03/08 02:47:27;;;;;;;6.65;5.03;;;;;;;10.59;74.54;100738.53;5052318;28;20036;-87
2023/03/08 02:49:53;;;;;;;6.80;5.10;;;;;;;10.47;74.59;100722.19;5067895;28;20036;-87
2023/03/08 02:52:18;;;;;;;7.25;5.20;;;;;;;10.39;73.87;100690.44;5052903;28;20044;-87
2023/03/08 02:54:44;;;;;;;8.02;5.35;;;;;;;10.35;74.27;100698.94;5070412;28;20032;-88
2023/03/08 02:57:09;;;;;;;8.00;5.22;;;;;;;10.51;74.15;100719.81;5071422;28;20462;-87
2023/03/08 02:59:35;;;;;;;7.55;4.93;;;;;;;10.53;74.42;100726.03;5052101;28;20031;-87
2023/03/08 03:02:01;;;;;;;7.90;5.30;;;;;;;10.43;74.24;100702.84;5066069;28;20108;-87
2023/03/08 03:04:31;;;;;;;7.47;4.72;;;;;;;10.53;74.24;100725.13;5052193;28;20501;-87
2023/03/08 03:06:57;;;;;;;7.00;5.05;;;;;;;10.28;73.97;100675.91;5051816;28;20032;-87
2023/03/08 03:09:23;;;;;;;6.40;4.97;;;;;;;10.62;73.95;100743.00;5053155;28;20028;-87
2023/03/08 03:11:48;;;;;;;6.80;4.90;;;;;;;10.33;74.04;100695.38;5047049;28;20099;-87
2023/03/08 03:14:14;;;;;;;7.28;5.18;;;;;;;10.36;74.33;100708.56;5049959;28;20099;-86
2023/03/08 03:16:40;;;;;;;8.10;5.55;;;;;;;10.47;74.05;100719.59;5035287;28;20055;-88
2023/03/08 03:19:05;;;;;;;7.22;5.60;;;;;;;10.37;74.46;100705.13;5052292;28;20036;-87
2023/03/08 03:21:31;;;;;;;6.63;4.97;;;;;;;10.42;74.11;100702.78;5069822;28;20448;-88
2023/03/08 03:23:56;;;;;;;5.90;4.75;;;;;;;10.39;74.39;100704.41;5052548;28;20034;-88
2023/03/08 03:26:23;;;;;;;7.15;4.88;;;;;;;10.49;74.34;100725.78;5052012;28;20403;-88
2023/03/08 03:28:51;;;;;;;7.03;5.30;;;;;;;10.48;74.58;100727.50;5047978;28;20410;-87
2023/03/08 03:31:19;;;;;;;6.00;5.07;;;;;;;10.53;74.19;100732.97;5061503;28;20028;-88
2023/03/08 03:33:45;;;;;;;6.57;4.82;;;;;;;10.26;74.51;100685.38;5048235;28;20059;-88
2023/03/08 03:36:13;;;;;;;7.38;5.50;;;;;;;10.49;74.24;100726.69;5035402;28;20036;-89
2023/03/08 03:38:40;;;;;;;7.38;5.45;;;;;;;10.32;74.32;100699.66;5049141;28;20036;-88
2023/03/08 03:41:08;;;;;;;6.70;5.10;;;;;;;10.35;74.30;100714.59;5051715;28;20118;-87
2023/03/08 03:43:34;;;;;;;7.82;5.22;;;;;;;10.40;73.99;100718.38;5070720;28;20029;-87
2023/03/08 03:46:03;;;;;;;7.28;4.97;;;;;;;10.54;74.14;100740.91;5050317;28;20044;-87
2023/03/08 03:48:29;;;;;;;6.88;4.97;;;;;;;10.57;74.19;100738.44;5051090;28;20028;-87
2023/03/08 03:51:02;;;;;;;6.72;4.82;;;;;;;10.51;74.10;100739.81;5050789;28;20025;-86
2023/03/08 03:53:29;;;;;;;7.35;5.07;;;;;;;10.56;73.96;100738.34;5047886;28;20104;-87
2023/03/08 03:55:55;;;;;;;6.65;5.03;;;;;;;10.46;74.20;100739.59;5049882;28;20048;-86
2023/03/08 03:58:21;;;;;;;7.93;5.28;;;;;;;10.31;74.21;100707.44;5050974;28;20528;-85
2023/03/08 04:00:46;;;;;;;6.95;4.88;;;;;;;10.02;74.13;100659.75;5050957;28;20040;-86
2023/03/08 04:03:12;;;;;;;7.07;5.07;;;;;;;10.11;74.38;100675.88;5049447;28;20024;-86
2023/03/08 04:05:38;;;;;;;5.68;4.43;;;;;;;10.50;74.31;100743.25;5051495;28;20483;-86
2023/03/08 04:08:07;;;;;;;7.75;5.35;;;;;;;10.54;74.24;100750.41;5034356;28;20493;-88
2023/03/08 04:10:33;;;;;;;7.35;5.10;;;;;;;10.28;74.47;100709.84;5068859;28;20119;-86
2023/03/08 04:12:58;;;;;;;6.60;4.72;;;;;;;10.48;74.28;100748.41;5065679;28;20569;-85
2023/03/08 04:15:24;;;;;;;5.60;4.55;;;;;;;10.40;74.23;100736.63;5069208;28;20032;-85
2023/03/08 04:17:50;;;;;;;6.95;5.20;;;;;;;10.44;74.19;100736.00;5038800;28;20107;-86
2023/03/08 04:20:16;;;;;;;7.70;5.20;;;;;;;10.28;73.91;100709.84;5070177;28;20032;-87
2023/03/08 04:22:42;;;;;;;6.20;4.90;;;;;;;10.30;74.16;100710.84;5046513;28;20028;-87
2023/03/08 04:25:08;;;;;;;6.15;4.90;;;;;;;10.11;74.30;100681.09;5051401;28;20039;-85
2023/03/08 04:27:33;;;;;;;6.25;4.93;;;;;;;10.28;74.27;100712.44;5052550;28;20062;-87
2023/03/08 04:29:59;;;;;;;7.00;5.20;;;;;;;10.39;73.91;100748.81;5070131;28;20104;-86
2023/03/08 04:32:24;;;;;;;6.80;5.35;;;;;;;10.36;74.30;100742.50;5068342;28;20075;-84
2023/03/08 04:34:50;;;;;;;6.53;4.97;;;;;;;10.46;74.31;100756.97;5070001;28;20028;-85
2023/03/08 04:37:15;;;;;;;6.40;4.82;;;;;;;10.33;74.41;100739.75;5062239;28;20024;-85
2023/03/08 04:39:41;;;;;;;7.50;5.07;;;;;;;10.27;74.20;100731.53;5052025;28;20029;-85
2023/03/08 04:42:07;;;;;;;6.00;4.75;;;;;;;10.27;74.67;100737.66;5058062;28;20034;-86
2023/03/08 04:44:32;;;;;;;6.28;5.10;;;;;;;10.38;74.32;100752.22;5069505;28;20035;-85
2023/03/08 04:46:58;;;;;;;6.80;5.03;;;;;;;10.38;74.14;100744.38;5045088;28;20025;-86
2023/03/08 04:49:24;;;;;;;7.15;5.10;;;;;;;10.46;74.16;100757.84;5045291;28;20460;-86
2023/03/08 04:51:49;;;;;;;6.90;4.97;;;;;;;10.43;74.46;100756.78;5055274;28;20052;-85
2023/03/08 04:54:15;;;;;;;7.13;5.05;;;;;;;10.39;74.60;100760.94;5059213;28;20033;-85
2023/03/08 04:56:41;;;;;;;7.53;5.32;;;;;;;10.14;74.35;100711.72;5065873;28;20028;-85
2023/03/08 04:59:06;;;;;;;7.70;5.18;;;;;;;10.16;74.08;100699.66;5072683;28;20029;-86
2023/03/08 05:01:32;;;;;;;6.93;4.90;;;;;;;10.03;74.20;100686.72;5055196;28;20032;-84
2023/03/08 05:03:57;;;;;;;6.45;4.50;;;;;;;10.48;74.26;100761.44;5051697;28;20025;-84
2023/03/08 05:06:26;;;;;;;7.53;5.30;;;;;;;10.29;74.12;100727.31;5055019;28;20036;-91
2023/03/08 05:08:53;;;;;;;7.43;4.70;;;;;;;10.43;74.17;100773.34;5053142;28;20029;-85
2023/03/08 05:11:24;;;;;;;7.00;4.90;;;;;;;10.37;74.18;100773.00;5033089;28;20382;-85
2023/03/08 05:13:52;;;;;;;7.18;5.32;;;;;;;10.15;74.21;100734.38;5035956;28;20024;-85
2023/03/08 05:16:18;;;;;;;6.30;4.88;;;;;;;10.41;74.30;100772.34;5052343;28;20036;-84
2023/03/08 05:18:43;;;;;;;6.43;5.00;;;;;;;10.26;74.20;100751.50;5052666;28;20098;-85
2023/03/08 05:21:12;;;;;;;7.68;5.10;;;;;;;10.18;74.19;100743.28;5061843;28;20482;-85
2023/03/08 05:23:38;;;;;;;6.47;4.55;;;;;;;10.41;74.07;100771.47;5052415;28;20631;-86
2023/03/08 05:26:04;;;;;;;6.65;5.00;;;;;;;10.42;74.07;100774.16;5064269;28;20036;-84
2023/03/08 05:28:32;;;;;;;6.32;4.85;;;;;;;10.46;74.16;100778.75;5033480;28;20523;-85
2023/03/08 05:31:06;;;;;;;6.43;5.00;;;;;;;10.47;74.21;100780.53;5059863;28;20036;-87
2023/03/08 05:33:33;;;;;;;6.22;4.68;;;;;;;10.43;73.95;100781.16;5042580;28;20609;-88
2023/03/08 05:35:59;;;;;;;7.55;5.30;;;;;;;10.43;73.93;100780.28;5050103;28;20032;-87
2023/03/08 05:38:25;;;;;;;7.13;5.22;;;;;;;10.31;73.98;100767.47;5053114;28;20029;-86
2023/03/08 05:40:51;;;;;;;6.40;5.13;;;;;;;10.30;74.02;100781.31;5053538;28;20042;-86
2023/03/08 05:43:17;;;;;;;6.72;5.28;;;;;;;10.13;73.91;100746.44;5052915;28;20024;-87
2023/03/08 05:45:52;;;;;;;;;;;;;;;10.43;73.96;100804.66;5053145;28;20043;-86
2023/03/08 05:48:19;;;;;;;6.68;5.22;;;;;;;10.39;74.29;100807.91;5033542;28;19912;-86
2023/03/08 05:50:44;;;;;;;;;;;;;;;10.43;74.04;100806.38;5046284;28;20112;-87
2023/03/08 05:53:10;;;;;;;8.50;5.50;;;;;;;10.24;73.97;100784.44;5036214;28;20003;-86
2023/03/08 05:55:35;;;;;;;7.03;5.07;;;;;;;10.15;74.41;100782.22;5062333;28;20497;-86
2023/03/08 05:58:01;;;;;;;5.95;4.50;;;;;;;10.26;74.16;100795.88;5062270;28;20036;-87
2023/03/08 06:00:27;;;;;;;6.43;5.17;;;;;;;10.03;74.22;100751.94;5037958;28;20032;-87
2023/03/08 06:02:53;;;;;;;7.43;5.30;;;;;;;10.37;74.42;100822.59;5038477;28;20267;-87
2023/03/08 06:05:19;;;;;;;6.68;4.85;;;;;;;10.33;74.45;100818.03;5049650;28;20124;-87
2023/03/08 06:07:45;;;;;;;11.32;6.43;;;;;;;10.24;74.45;100810.53;5044688;28;20100;-87
2023/03/08 06:10:10;;;;;;;19.00;11.00;;;;;;;10.07;74.02;100783.50;5036576;28;20032;-87
2023/03/08 06:12:36;;;;;;;8.82;6.00;;;;;;;10.24;74.12;100804.44;5058684;28;20028;-88
2023/03/08 06:15:02;;;;;;;8.45;5.20;;;;;;;10.03;74.11;100780.63;5061214;28;20032;-87
2023/03/08 06:17:27;;;;;;;7.00;5.63;;;;;;;10.10;74.29;100781.09;5052531;28;20043;-86
2023/03/08 06:19:53;;;;;;;7.20;5.03;;;;;;;10.39;74.42;100840.16;5062587;28;20028;-88
2023/03/08 06:22:23;;;;;;;7.35;5.32;;;;;;;10.31;73.93;100836.22;5067084;28;20068;-90
2023/03/08 06:24:48;;;;;;;6.50;5.03;;;;;;;10.32;74.06;100835.38;5051728;28;20559;-89
2023/03/08 06:27:16;;;;;;;7.53;5.85;;;;;;;10.29;74.21;100827.41;5048368;28;20087;-90
2023/03/08 06:29:43;;;;;;;8.73;6.10;;;;;;;10.25;74.20;100829.72;5062421;28;20036;-89
2023/03/08 06:32:10;;;;;;;8.65;5.75;;;;;;;10.11;74.21;100808.06;5053824;28;20123;-90
2023/03/08 06:34:36;;;;;;;8.77;5.82;;;;;;;10.34;74.53;100853.75;5042453;28;20033;-90
2023/03/08 06:37:02;;;;;;;7.28;5.55;;;;;;;10.33;74.01;100845.03;5045774;28;20125;-91
2023/03/08 06:39:29;;;;;;;6.50;4.95;;;;;;;10.24;74.60;100838.34;5050972;28;20502;-88
2023/03/08 06:41:57;;;;;;;7.60;5.57;;;;;;;10.32;74.20;100847.56;5051854;28;20718;-89
2023/03/08 06:44:24;;;;;;;7.18;4.78;;;;;;;10.09;74.51;100807.06;5048538;28;20071;-89
2023/03/08 06:46:49;;;;;;;6.90;5.10;;;;;;;10.28;74.11;100837.72;5070491;28;20021;-90
2023/03/08 06:49:15;;;;;;;7.78;5.07;;;;;;;10.37;74.41;100851.31;5061564;28;20048;-89
2023/03/08 06:51:41;;;;;;;7.10;5.15;;;;;;;10.42;74.33;100857.69;5049733;28;20060;-92
2023/03/08 06:54:07;;;;;;;7.18;5.07;;;;;;;10.01;74.42;100800.53;5032168;28;20111;-90
2023/03/08 06:56:33;;;;;;;6.10;4.78;;;;;;;10.17;74.26;100821.47;5049359;28;20567;-90
2023/03/08 06:59:01;;;;;;;5.95;4.68;;;;;;;10.33;74.26;100849.38;5039755;28;20036;-90
2023/03/08 07:01:40;;;;;;;6.60;5.22;;;;;;;10.23;74.48;100833.97;5051404;28;20036;-90
2023/03/08 07:04:07;;;;;;;7.20;5.03;;;;;;;10.19;74.25;100825.06;5042376;28;20093;-93
2023/03/08 07:06:33;;;;;;;6.68;4.90;;;;;;;10.38;74.20;100864.44;5050761;28;20563;-90
2023/03/08 07:08:58;;;;;;;9.77;6.10;;;;;;;10.39;74.36;100860.13;5053369;28;20029;-90
2023/03/08 07:11:25;;;;;;;7.25;5.35;;;;;;;10.29;74.27;100850.91;5048543;28;20517;-91
2023/03/08 07:13:57;;;;;;;7.95;5.35;;;;;;;10.24;74.14;100848.78;5052652;28;20028;-90
2023/03/08 07:16:23;;;;;;;6.88;4.93;;;;;;;9.90;73.96;100779.94;5051604;28;20032;-90
2023/03/08 07:18:50;;;;;;;9.50;5.80;;;;;;;10.30;74.18;100849.19;5050984;28;20366;-87
2023/03/08 07:21:16;;;;;;;9.60;6.07;;;;;;;10.35;74.40;100869.53;5037429;28;20087;-88
2023/03/08 07:23:42;;;;;;;7.07;5.32;;;;;;;10.38;74.59;100876.63;5052415;28;20032;-90
2023/03/08 07:26:09;;;;;;;7.03;5.30;;;;;;;10.38;74.39;100880.13;5062392;28;20129;-89
2023/03/08 07:28:38;;;;;;;7.80;5.53;;;;;;;10.44;74.19;100890.00;5046707;28;20035;-91
2023/03/08 07:31:13;;;;;;;7.07;5.65;;;;;;;10.12;74.21;100841.19;5052792;28;20028;-91
2023/03/08 07:33:38;;;;;;;7.68;5.10;;;;;;;10.23;74.15;100860.94;5053185;28;20031;-90
2023/03/08 07:36:05;;;;;;;7.35;5.18;;;;;;;10.17;74.57;100860.59;5059349;28;20033;-89
2023/03/08 07:38:31;;;;;;;7.43;5.13;;;;;;;10.36;74.58;100888.69;5050712;28;20040;-91
2023/03/08 07:40:56;;;;;;;10.10;5.78;;;;;;;10.34;74.78;100895.53;5048955;28;20032;-89
2023/03/08 07:43:22;;;;;;;8.07;5.75;;;;;;;10.34;74.60;100891.19;5066979;28;20048;-89
2023/03/08 07:45:50;;;;;;;7.75;5.35;;;;;;;10.28;74.91;100875.16;5052328;28;20029;-88
2023/03/08 07:48:15;;;;;;;8.35;5.60;;;;;;;10.26;74.67;100868.06;5067640;28;20028;-89
2023/03/08 07:50:41;;;;;;;8.30;5.10;;;;;;;10.11;74.66;100852.41;5067909;28;20036;-90
2023/03/08 07:53:07;;;;;;;6.78;4.75;;;;;;;10.12;74.74;100860.34;5061651;28;20490;-87
2023/03/08 07:55:33;;;;;;;7.07;5.03;;;;;;;10.14;74.84;100858.72;5044178;28;20029;-90
2023/03/08 07:57:59;;;;;;;7.78;5.65;;;;;;;10.28;75.16;100880.38;5067615;28;20101;-88
2023/03/08 08:00:24;;;;;;;7.70;5.32;;;;;;;10.11;74.65;100837.66;5051721;28;20490;-88
2023/03/08 08:02:54;;;;;;;7.90;5.72;;;;;;;10.33;74.98;100886.81;5057901;28;20040;-92
2023/03/08 08:05:22;;;;;;;6.65;4.93;;;;;;;10.21;75.02;100870.41;5063356;28;20036;-90
2023/03/08 08:07:47;;;;;;;6.53;5.05;;;;;;;10.14;74.95;100877.00;5051902;28;20032;-89
2023/03/08 08:10:14;;;;;;;7.70;5.28;;;;;;;10.26;75.37;100884.59;5061423;28;20029;-90
2023/03/08 08:12:40;;;;;;;6.65;5.25;;;;;;;10.25;75.14;100876.72;5067638;28;20551;-89
2023/03/08 08:15:06;;;;;;;6.55;4.90;;;;;;;10.24;74.97;100878.38;5062757;28;20127;-88
2023/03/08 08:17:34;;;;;;;7.00;5.15;;;;;;;10.22;75.30;100881.72;5051925;28;20096;-90
2023/03/08 08:20:00;;;;;;;5.82;4.75;;;;;;;9.85;75.38;100817.03;5035548;28;20029;-90
2023/03/08 08:22:34;;;;;;;8.05;5.38;;;;;;;10.26;75.39;100868.06;5064674;28;20024;-90
2023/03/08 08:25:00;;;;;;;7.07;4.70;;;;;;;10.24;75.32;100872.28;5030270;28;20029;-90
2023/03/08 08:27:27;;;;;;;8.00;5.28;;;;;;;10.27;75.50;100875.09;5043139;28;20032;-88
2023/03/08 08:29:53;;;;;;;7.85;5.13;;;;;;;10.16;75.44;100854.50;5063245;28;20020;-88
2023/03/08 08:32:27;;;;;;;7.88;5.28;;;;;;;10.16;75.34;100851.88;5062233;28;20264;-92
2023/03/08 08:35:15;;;;;;;7.50;5.10;;;;;;;10.29;75.11;100873.47;5068452;28;20508;-92
2023/03/08 08:37:42;;;;;;;7.30;4.95;;;;;;;10.04;75.41;100835.53;5039883;28;20078;-93
2023/03/08 08:40:11;;;;;;;6.07;4.78;;;;;;;10.04;75.82;100839.84;5067057;28;20029;-91
2023/03/08 08:42:36;;;;;;;7.18;5.40;;;;;;;10.21;75.70;100866.91;5064575;28;20418;-89
2023/03/08 08:45:03;;;;;;;6.57;4.65;;;;;;;10.19;75.59;100859.88;5073016;28;20057;-90
2023/03/08 08:47:29;;;;;;;8.35;4.93;;;;;;;10.19;75.58;100854.66;5063734;28;20055;-89
2023/03/08 08:49:54;;;;;;;6.63;4.82;;;;;;;10.10;76.01;100832.38;5054616;28;20469;-87
2023/03/08 08:52:22;;;;;;;10.73;5.13;;;;;;;10.06;75.76;100813.03;5071489;28;20037;-89
2023/03/08 08:55:04;;;;;;;26.42;6.07;;;;;;;10.33;76.00;100850.25;5057623;28;20032;-94
2023/03/08 08:57:30;;;;;;;13.07;5.30;;;;;;;10.36;75.73;100866.06;5041227;28;20068;-88
2023/03/08 08:59:56;;;;;;;10.40;4.85;;;;;;;10.03;75.62;100789.34;5073558;28;20063;-86
2023/03/08 09:02:23;;;;;;;13.55;4.80;;;;;;;10.27;75.65;100844.66;5072154;28;20044;-86
2023/03/08 09:04:49;;;;;;;11.35;4.57;;;;;;;10.24;75.74;100834.03;5072910;28;20029;-86
2023/03/08 09:07:14;;;;;;;9.98;4.95;;;;;;;10.34;75.53;100844.22;5060505;28;20069;-84
2023/03/08 09:09:40;;;;;;;8.30;4.95;;;;;;;10.29;75.84;100840.47;5064163;28;20033;-86
2023/03/08 09:12:06;;;;;;;8.13;4.45;;;;;;;10.38;75.74;100840.97;5059781;28;20386;-85
2023/03/08 09:14:33;;;;;;;9.52;5.00;;;;;;;10.35;76.42;100846.03;5055804;28;20032;-85
2023/03/08 09:16:58;;;;;;;11.60;5.82;;;;;;;10.09;76.00;100789.69;5069198;28;20021;-85
2023/03/08 09:19:24;;;;;;;18.92;7.13;;;;;;;10.39;76.02;100834.94;5073854;28;20016;-86
2023/03/08 09:21:50;;;;;;;17.38;7.07;;;;;;;10.42;76.10;100847.25;5069374;28;20524;-86
2023/03/08 09:24:15;;;;;;;19.83;7.88;;;;;;;10.40;76.65;100846.28;5068113;28;20013;-85
2023/03/08 09:26:41;;;;;;;23.98;9.00;;;;;;;10.37;76.53;100838.25;5048552;28;20532;-85
2023/03/08 09:29:07;;;;;;;26.75;8.00;;;;;;;10.46;76.75;100848.34;5047718;28;20035;-86
2023/03/08 09:31:35;;;;;;;22.25;8.40;;;;;;;10.44;76.69;100842.13;5039420;28;20033;-85
2023/03/08 09:34:03;;;;;;;22.58;9.10;;;;;;;9.94;76.67;100741.91;5048578;28;20025;-86
2023/03/08 09:36:29;;;;;;;21.48;8.45;;;;;;;10.27;76.93;100810.72;5067238;28;20017;-86
2023/03/08 09:38:55;;;;;;;28.48;9.50;;;;;;;10.38;76.77;100806.13;5052563;28;20025;-86
2023/03/08 09:41:44;;;;;;;22.50;9.40;;;;;;;10.53;77.19;100837.41;5053051;28;20417;-84
2023/03/08 09:44:10;;;;;;;26.02;8.68;;;;;;;10.52;77.11;100833.91;5052003;28;20036;-86
2023/03/08 09:46:41;;;;;;;24.50;10.00;;;;;;;10.53;77.31;100833.06;5051941;28;20021;-85
2023/03/08 09:49:13;;;;;;;24.48;9.70;;;;;;;10.54;77.19;100821.84;5051093;28;20024;-86
2023/03/08 09:51:41;;;;;;;29.08;10.93;;;;;;;10.73;77.13;100804.53;5054575;28;20537;-85
2023/03/08 09:54:12;;;;;;;28.25;11.10;;;;;;;10.80;76.97;100833.69;5055687;28;20024;-86
2023/03/08 09:56:42;;;;;;;30.38;10.50;;;;;;;10.79;77.09;100830.97;5055401;28;20024;-85
2023/03/08 09:59:13;;;;;;;24.52;9.73;;;;;;;10.75;77.65;100829.03;5051882;28;20051;-85
2023/03/08 10:02:24;;;;;;;27.80;11.02;;;;;;;10.75;77.76;100821.19;5053378;28;20074;-86
2023/03/08 10:04:52;;;;;;;23.73;10.02;;;;;;;10.73;78.04;100820.19;5028403;28;20044;-86
2023/03/08 10:07:30;;;;;;;26.35;10.27;;;;;;;10.74;78.01;100816.78;5051409;28;20048;-86
2023/03/08 10:10:08;;;;;;;30.30;10.73;;;;;;;10.74;78.10;100812.47;5052648;28;20095;-86
2023/03/08 10:13:00;;;;;;;22.85;9.93;;;;;;;10.76;78.12;100813.44;5052479;28;20025;-86
2023/03/08 10:15:27;;;;;;;27.63;10.93;;;;;;;10.77;78.13;100820.47;5052291;28;20031;-86
2023/03/08 10:17:56;;;;;;;23.25;9.77;;;;;;;10.74;78.32;100808.97;5052204;28;20063;-85
2023/03/08 10:20:31;;;;;;;21.83;9.25;;;;;;;10.78;78.07;100817.03;5038035;28;20547;-85
2023/03/08 10:22:59;;;;;;;26.88;10.50;;;;;;;10.62;78.32;100776.94;5050715;28;20017;-86
2023/03/08 10:25:30;;;;;;;22.20;10.10;;;;;;;10.82;78.04;100798.94;5051031;28;20060;-86
2023/03/08 10:27:58;;;;;;;22.80;9.85;;;;;;;10.76;78.34;100795.16;5051394;28;20126;-86
2023/03/08 10:30:36;;;;;;;22.95;9.57;;;;;;;10.80;78.24;100797.13;5050675;28;20024;-86
2023/03/08 10:33:06;;;;;;;21.35;9.27;;;;;;;10.72;78.23;100776.63;5051998;28;20033;-86
2023/03/08 10:36:01;;;;;;;22.90;9.57;;;;;;;10.84;78.20;100802.50;5050635;28;20555;-86
2023/03/08 10:38:31;;;;;;;21.20;8.98;;;;;;;10.91;78.04;100804.63;5048319;28;20060;-86
2023/03/08 10:41:11;;;;;;;17.88;8.98;;;;;;;10.93;78.12;100790.81;5066706;28;20078;-86
2023/03/08 10:43:47;;;;;;;22.48;9.18;;;;;;;10.94;78.35;100789.09;5051831;28;20464;-86
2023/03/08 10:46:16;;;;;;;23.33;8.90;;;;;;;10.76;78.00;100748.13;5033730;28;20040;-85
2023/03/08 10:48:41;;;;;;;18.67;8.45;;;;;;;10.86;78.07;100759.97;5050314;28;20152;-86
2023/03/08 10:51:27;;;;;;;21.33;9.38;;;;;;;10.96;77.93;100779.63;5047088;28;20116;-86
2023/03/08 10:54:03;;;;;;;22.23;8.68;;;;;;;10.99;78.18;100774.59;5044524;28;20497;-86
2023/03/08 10:56:34;;;;;;;18.83;8.57;;;;;;;11.03;78.03;100762.56;5050514;28;20029;-85
2023/03/08 10:59:00;;;;;;;18.33;7.85;;;;;;;10.93;77.49;100741.19;5051283;28;20029;-85
2023/03/08 11:01:31;;;;;;;23.25;8.25;;;;;;;11.03;78.19;100757.31;5050303;28;20035;-85
2023/03/08 11:03:58;;;;;;;17.05;8.13;;;;;;;10.98;78.16;100734.50;5050069;28;20025;-85
2023/03/08 11:06:24;;;;;;;18.90;8.32;;;;;;;11.09;78.29;100752.41;5051493;28;20111;-85
2023/03/08 11:08:52;;;;;;;20.52;8.27;;;;;;;11.08;78.46;100745.41;5049967;28;20078;-85
2023/03/08 11:11:18;;;;;;;20.85;9.00;;;;;;;10.98;78.18;100724.06;5051272;28;20041;-85
2023/03/08 11:13:46;;;;;;;18.48;7.82;;;;;;;11.12;78.52;100744.75;5043269;28;20037;-86
2023/03/08 11:20:12;;;;;;;19.35;7.65;;;;;;;11.13;78.66;100739.63;5027919;28;20555;-87
2023/03/08 11:22:56;;;;;;;17.65;7.80;;;;;;;11.21;78.74;100745.22;5044915;28;20121;-86
2023/03/08 11:25:36;;;;;;;18.63;7.45;;;;;;;11.26;78.61;100746.38;5044341;28;20577;-86
2023/03/08 11:28:21;;;;;;;16.42;7.38;;;;;;;11.12;79.59;100719.50;5046517;28;20028;-85
2023/03/08 11:30:56;;;;;;;15.75;7.82;;;;;;;11.33;79.68;100742.34;5048435;28;20528;-86